createdAt,value
2023-04-16T00:02:02.061Z,44.23
2023-04-16T00:04:29.419Z,41.10
2023-04-16T00:06:56.393Z,43.67
2023-04-16T00:09:23.306Z,39.33
2023-04-16T00:11:50.210Z,45.73
2023-04-16T00:14:17.122Z,38.23
2023-04-16T00:16:44.092Z,36.77
2023-04-16T00:19:11.259Z,37.07
2023-04-16T00:21:38.338Z,41.73
2023-04-16T00:24:05.287Z,43.17
2023-04-16T00:26:32.188Z,44.50
2023-04-16T00:28:59.150Z,38.13
2023-04-16T00:31:31.045Z,43.33
2023-04-16T00:33:58.770Z,46.93
2023-04-16T00:36:27.374Z,37.70
2023-04-16T00:38:55.457Z,43.50
2023-04-16T00:41:23.129Z,38.83
2023-04-16T00:43:50.799Z,34.10
2023-04-16T00:46:21.263Z,37.60
2023-04-16T00:48:49.385Z,46.00
2023-04-16T00:51:16.940Z,38.83
2023-04-16T00:53:45.986Z,43.53
2023-04-16T00:56:13.727Z,40.77
2023-04-16T00:58:40.831Z,40.13
2023-04-16T01:01:07.868Z,39.03
2023-04-16T01:03:46.423Z,38.97
2023-04-16T01:06:14.823Z,47.60
2023-04-16T01:08:41.744Z,36.87
2023-04-16T01:11:09.708Z,43.03
2023-04-16T01:13:39.438Z,43.07
2023-04-16T01:16:12.729Z,44.60
2023-04-16T01:18:39.805Z,45.30
2023-04-16T01:21:06.878Z,44.37
2023-04-16T01:23:33.806Z,42.30
2023-04-16T01:26:00.853Z,45.87
2023-04-16T01:28:27.802Z,43.13
2023-04-16T01:30:54.866Z,46.37
2023-04-16T01:33:32.118Z,53.83
2023-04-16T01:35:59.149Z,42.90
2023-04-16T01:38:26.168Z,35.73
2023-04-16T01:40:59.618Z,35.87
2023-04-16T01:43:26.601Z,34.50
2023-04-16T01:46:18.893Z,41.37
2023-04-16T01:48:46.214Z,41.03
2023-04-16T01:51:13.346Z,43.27
2023-04-16T01:53:40.480Z,41.27
2023-04-16T01:56:07.484Z,40.40
2023-04-16T01:58:35.868Z,43.33
2023-04-16T02:01:02.882Z,38.73
2023-04-16T02:03:31.356Z,40.23
2023-04-16T02:05:58.531Z,39.30
2023-04-16T02:08:25.556Z,47.83
2023-04-16T02:10:52.562Z,39.63
2023-04-16T02:13:19.551Z,42.67
2023-04-16T02:15:51.349Z,42.67
2023-04-16T02:18:25.921Z,41.60
2023-04-16T02:20:53.010Z,42.03
2023-04-16T02:23:20.021Z,37.53
2023-04-16T02:25:48.169Z,51.03
2023-04-16T02:28:17.110Z,43.43
2023-04-16T02:30:46.014Z,41.67
2023-04-16T02:33:15.253Z,36.60
2023-04-16T02:35:52.489Z,49.80
2023-04-16T02:38:19.895Z,43.40
2023-04-16T02:40:46.777Z,38.33
2023-04-16T02:43:13.732Z,44.67
2023-04-16T02:45:40.792Z,43.43
2023-04-16T02:48:09.079Z,48.57
2023-04-16T02:50:36.173Z,38.27
2023-04-16T02:53:04.290Z,36.93
2023-04-16T02:55:31.241Z,36.03
2023-04-16T02:57:58.200Z,41.90
2023-04-16T03:00:25.619Z,52.03
2023-04-16T03:02:52.708Z,41.17
2023-04-16T03:05:19.874Z,38.07
2023-04-16T03:07:46.958Z,46.80
2023-04-16T03:10:15.406Z,43.40
2023-04-16T03:12:42.319Z,36.87
2023-04-16T03:15:09.750Z,49.60
2023-04-16T03:17:36.976Z,36.10
2023-04-16T03:20:05.019Z,35.67
2023-04-16T03:22:31.928Z,35.47
2023-04-16T03:24:58.814Z,48.23
2023-04-16T03:27:25.762Z,41.33
2023-04-16T03:29:53.316Z,41.13
2023-04-16T03:32:20.232Z,35.13
2023-04-16T03:34:47.196Z,44.60
2023-04-16T03:37:14.188Z,39.00
2023-04-16T03:39:41.513Z,42.40
2023-04-16T03:42:10.526Z,42.03
2023-04-16T03:44:37.514Z,37.00
2023-04-16T03:47:04.419Z,37.00
2023-04-16T03:49:31.334Z,42.70
2023-04-16T03:51:59.209Z,39.57
2023-04-16T03:54:26.844Z,46.73
2023-04-16T03:57:05.666Z,42.00
2023-04-16T03:59:33.588Z,40.97
2023-04-16T04:02:00.883Z,45.47
2023-04-16T04:04:28.074Z,47.70
2023-04-16T04:06:55.047Z,46.70
2023-04-16T04:09:23.174Z,59.00
2023-04-16T04:11:50.829Z,44.10
2023-04-16T04:14:17.979Z,42.47
2023-04-16T04:16:45.056Z,37.20
2023-04-16T04:19:12.489Z,43.87
2023-04-16T04:21:39.600Z,44.40
2023-04-16T04:24:06.684Z,47.43
2023-04-16T04:26:34.437Z,41.23
2023-04-16T04:29:01.351Z,43.37
2023-04-16T04:31:28.378Z,40.10
2023-04-16T04:33:56.164Z,48.23
2023-04-16T04:36:23.283Z,44.80
2023-04-16T04:38:50.461Z,37.50
2023-04-16T04:41:17.583Z,39.77
2023-04-16T04:43:44.506Z,39.30
2023-04-16T04:46:12.347Z,41.80
2023-04-16T04:48:40.956Z,40.07
2023-04-16T04:51:07.960Z,42.33
2023-04-16T04:53:35.099Z,37.93
2023-04-16T04:56:11.665Z,40.53
2023-04-16T04:58:40.617Z,42.23
2023-04-16T05:01:07.548Z,40.07
2023-04-16T05:03:34.659Z,41.07
2023-04-16T05:06:01.630Z,31.93
2023-04-16T05:08:28.526Z,38.30
2023-04-16T05:10:55.451Z,38.60
2023-04-16T05:13:22.389Z,44.10
2023-04-16T05:15:49.263Z,41.23
2023-04-16T05:18:16.330Z,36.83
2023-04-16T05:20:43.228Z,33.90
2023-04-16T05:23:10.152Z,33.60
2023-04-16T05:25:37.100Z,43.23
2023-04-16T05:28:04.062Z,33.40
2023-04-16T05:30:31.026Z,39.50
2023-04-16T05:32:58.034Z,45.53
2023-04-16T05:35:24.966Z,35.40
2023-04-16T05:37:51.854Z,38.73
2023-04-16T05:40:18.833Z,43.50
2023-04-16T05:42:45.744Z,36.30
2023-04-16T05:45:12.653Z,42.37
2023-04-16T05:47:39.611Z,39.83
2023-04-16T05:50:07.157Z,45.83
2023-04-16T05:52:34.049Z,37.67
2023-04-16T05:55:01.897Z,36.53
2023-04-16T05:57:29.796Z,40.33
2023-04-16T05:59:56.678Z,39.20
2023-04-16T06:02:23.736Z,34.67
2023-04-16T06:04:50.789Z,41.57
2023-04-16T06:07:17.708Z,44.93
2023-04-16T06:09:45.663Z,35.00
2023-04-16T06:12:12.663Z,34.17
2023-04-16T06:14:39.543Z,45.20
2023-04-16T06:17:06.458Z,39.83
2023-04-16T06:19:33.339Z,38.17
2023-04-16T06:22:00.305Z,40.57
2023-04-16T06:24:27.186Z,44.50
2023-04-16T06:26:54.657Z,40.00
2023-04-16T06:29:24.142Z,36.93
2023-04-16T06:31:57.620Z,43.53
2023-04-16T06:34:24.582Z,41.93
2023-04-16T06:36:52.357Z,50.00
2023-04-16T06:39:21.744Z,34.27
2023-04-16T06:41:49.339Z,35.03
2023-04-16T06:44:16.238Z,43.17
2023-04-16T06:46:43.252Z,39.50
2023-04-16T06:49:10.339Z,38.57
2023-04-16T06:51:37.988Z,31.33
2023-04-16T06:54:04.967Z,40.93
2023-04-16T06:56:32.322Z,42.47
2023-04-16T06:59:00.939Z,31.67
2023-04-16T07:01:28.555Z,39.03
2023-04-16T07:03:55.874Z,33.33
2023-04-16T07:06:22.902Z,32.87
2023-04-16T07:08:49.846Z,34.63
2023-04-16T07:11:17.153Z,30.47
2023-04-16T07:13:44.108Z,34.20
2023-04-16T07:16:11.023Z,30.03
2023-04-16T07:18:38.027Z,28.20
2023-04-16T07:21:05.034Z,33.37
2023-04-16T07:23:31.949Z,36.57
2023-04-16T07:25:58.833Z,26.47
2023-04-16T07:28:26.023Z,35.00
2023-04-16T07:30:52.933Z,32.03
2023-04-16T07:33:19.831Z,29.43
2023-04-16T07:35:47.311Z,33.67
2023-04-16T07:38:14.845Z,32.50
2023-04-16T07:40:41.717Z,34.57
2023-04-16T07:43:09.035Z,27.10
2023-04-16T07:45:36.001Z,34.20
2023-04-16T07:48:02.971Z,28.63
2023-04-16T07:50:29.880Z,27.63
2023-04-16T07:52:56.778Z,30.20
2023-04-16T07:55:23.743Z,28.60
2023-04-16T07:57:50.713Z,26.07
2023-04-16T08:00:17.826Z,32.00
2023-04-16T08:02:45.012Z,24.83
2023-04-16T08:05:12.856Z,29.60
2023-04-16T08:07:39.756Z,32.90
2023-04-16T08:10:07.436Z,27.40
2023-04-16T08:12:34.951Z,28.40
2023-04-16T08:15:01.825Z,27.63
2023-04-16T08:17:29.492Z,25.57
2023-04-16T08:19:56.450Z,29.07
2023-04-16T08:22:23.355Z,27.33
2023-04-16T08:24:50.251Z,30.77
2023-04-16T08:27:19.420Z,37.30
2023-04-16T08:29:47.575Z,29.90
2023-04-16T08:32:14.469Z,26.20
2023-04-16T08:34:42.209Z,32.60
2023-04-16T08:37:09.600Z,28.80
2023-04-16T08:39:36.682Z,33.43
2023-04-16T08:42:06.352Z,25.67
2023-04-16T08:44:37.902Z,28.43
2023-04-16T08:47:09.529Z,31.23
2023-04-16T08:49:43.538Z,23.57
2023-04-16T08:52:19.309Z,25.20
2023-04-16T08:55:07.174Z,24.53
2023-04-16T08:57:51.086Z,24.63
2023-04-16T09:00:19.205Z,27.93
2023-04-16T09:02:46.538Z,24.53
2023-04-16T09:05:20.691Z,24.77
2023-04-16T09:07:48.668Z,26.70
2023-04-16T09:10:16.552Z,24.40
2023-04-16T09:12:45.237Z,24.00
2023-04-16T09:15:13.912Z,23.13
2023-04-16T09:17:40.914Z,25.23
2023-04-16T09:20:09.373Z,21.87
2023-04-16T09:22:37.054Z,31.40
2023-04-16T09:25:04.276Z,28.03
2023-04-16T09:27:31.989Z,27.17
2023-04-16T09:29:59.285Z,27.50
2023-04-16T09:32:28.427Z,19.70
2023-04-16T09:35:02.379Z,19.57
2023-04-16T09:37:30.906Z,18.60
2023-04-16T09:40:03.931Z,18.30
2023-04-16T09:42:36.885Z,20.20
2023-04-16T09:45:06.026Z,18.40
2023-04-16T09:47:42.930Z,20.40
2023-04-16T09:50:17.775Z,18.20
2023-04-16T09:52:51.573Z,18.57
2023-04-16T09:55:23.978Z,20.77
2023-04-16T09:58:02.196Z,18.07
2023-04-16T10:00:31.347Z,15.00
2023-04-16T10:03:07.986Z,15.00
2023-04-16T10:05:35.290Z,15.27
2023-04-16T10:08:02.454Z,17.67
2023-04-16T10:10:30.205Z,12.00
2023-04-16T10:12:57.965Z,15.17
2023-04-16T10:15:25.316Z,13.90
2023-04-16T10:17:53.888Z,16.70
2023-04-16T10:20:21.039Z,13.70
2023-04-16T10:22:48.219Z,16.93
2023-04-16T10:25:15.533Z,17.43
2023-04-16T10:27:42.477Z,14.60
2023-04-16T10:30:11.265Z,20.83
2023-04-16T10:32:38.962Z,14.40
2023-04-16T10:35:06.860Z,16.57
2023-04-16T10:37:34.574Z,14.17
2023-04-16T10:40:01.716Z,13.23
2023-04-16T10:42:28.683Z,13.87
2023-04-16T10:44:59.525Z,11.27
2023-04-16T10:47:26.719Z,11.10
2023-04-16T10:49:53.686Z,9.87
2023-04-16T10:52:22.440Z,11.13
2023-04-16T10:54:49.990Z,12.57
2023-04-16T10:57:19.714Z,15.20
2023-04-16T10:59:48.717Z,13.20
2023-04-16T11:02:19.622Z,11.47
2023-04-16T11:04:49.215Z,11.30
2023-04-16T11:07:22.622Z,12.30
2023-04-16T11:10:06.762Z,11.17
2023-04-16T11:12:42.122Z,12.77
2023-04-16T11:15:11.930Z,13.10
2023-04-16T11:17:47.879Z,11.90
2023-04-16T11:20:24.262Z,14.00
2023-04-16T11:22:56.850Z,14.40
2023-04-16T11:25:26.144Z,15.50
2023-04-16T11:27:53.651Z,13.40
2023-04-16T11:30:30.620Z,14.27
2023-04-16T11:32:57.561Z,16.63
2023-04-16T11:35:24.562Z,12.13
2023-04-16T11:37:57.155Z,11.33
2023-04-16T11:40:27.066Z,13.30
2023-04-16T11:42:53.988Z,14.23
2023-04-16T11:45:21.104Z,15.47
2023-04-16T11:47:55.144Z,13.13
2023-04-16T11:50:27.784Z,12.47
2023-04-16T11:53:05.444Z,12.00
2023-04-16T11:55:32.386Z,11.70
2023-04-16T11:58:12.934Z,10.60
2023-04-16T12:00:41.594Z,12.23
2023-04-16T12:03:08.745Z,11.73
2023-04-16T12:05:39.345Z,10.90
2023-04-16T12:08:09.028Z,8.73
2023-04-16T12:10:52.472Z,8.60
2023-04-16T12:13:19.728Z,12.70
2023-04-16T12:15:52.073Z,12.53
2023-04-16T12:18:26.742Z,10.30
2023-04-16T12:20:54.067Z,10.60
2023-04-16T12:23:30.011Z,10.17
2023-04-16T12:26:02.551Z,10.50
2023-04-16T12:28:38.414Z,10.80
2023-04-16T12:31:06.322Z,11.30
2023-04-16T12:33:33.410Z,10.60
2023-04-16T12:36:01.556Z,10.17
2023-04-16T12:38:29.070Z,10.90
2023-04-16T12:40:57.558Z,11.00
2023-04-16T12:43:25.117Z,13.17
2023-04-16T12:45:52.148Z,12.53
2023-04-16T12:48:19.071Z,16.97
2023-04-16T12:50:46.144Z,15.37
2023-04-16T12:53:13.044Z,15.60
2023-04-16T12:55:39.951Z,13.97
2023-04-16T12:58:06.875Z,16.40
2023-04-16T13:00:33.785Z,14.40
2023-04-16T13:03:00.966Z,16.50
2023-04-16T13:05:28.017Z,15.37
2023-04-16T13:07:55.031Z,18.70
2023-04-16T13:10:23.450Z,16.77
2023-04-16T13:12:50.345Z,17.40
2023-04-16T13:15:17.277Z,16.17
2023-04-16T13:17:44.247Z,13.60
2023-04-16T13:20:11.344Z,16.83
2023-04-16T13:22:39.274Z,16.87
2023-04-16T13:25:07.005Z,21.17
2023-04-16T13:27:33.891Z,14.70
2023-04-16T13:30:00.915Z,16.43
2023-04-16T13:32:27.888Z,19.07
2023-04-16T13:34:55.021Z,18.13
2023-04-16T13:37:21.904Z,13.33
2023-04-16T13:39:48.796Z,15.67
2023-04-16T13:42:15.697Z,15.07
2023-04-16T13:44:42.706Z,17.40
2023-04-16T13:47:09.646Z,15.47
2023-04-16T13:49:36.663Z,14.57
2023-04-16T13:52:03.960Z,15.40
2023-04-16T13:54:30.934Z,15.70
2023-04-16T13:56:57.830Z,14.87
2023-04-16T13:59:24.754Z,17.80
2023-04-16T14:01:51.724Z,20.10
2023-04-16T14:04:18.801Z,15.53
2023-04-16T14:06:45.952Z,17.83
2023-04-16T14:09:13.016Z,16.10
2023-04-16T14:11:40.262Z,13.70
2023-04-16T14:14:07.157Z,13.60
2023-04-16T14:16:35.813Z,12.83
2023-04-16T14:19:02.747Z,15.23
2023-04-16T14:21:31.247Z,11.17
2023-04-16T14:23:58.160Z,12.93
2023-04-16T14:26:25.106Z,11.20
2023-04-16T14:28:52.098Z,12.50
2023-04-16T14:31:20.004Z,10.47
2023-04-16T14:33:47.160Z,11.00
2023-04-16T14:36:14.265Z,11.90
2023-04-16T14:38:43.173Z,11.40
2023-04-16T14:41:11.948Z,9.47
2023-04-16T14:43:41.194Z,21.20
2023-04-16T14:46:08.281Z,11.20
2023-04-16T14:48:35.222Z,10.20
2023-04-16T14:51:02.510Z,9.53
2023-04-16T14:53:29.432Z,9.17
2023-04-16T14:55:58.938Z,12.80
2023-04-16T14:58:26.541Z,10.20
2023-04-16T15:00:53.624Z,10.20
2023-04-16T15:03:21.037Z,10.73
2023-04-16T15:05:54.770Z,11.87
2023-04-16T15:08:22.777Z,10.13
2023-04-16T15:10:50.441Z,9.13
2023-04-16T15:13:17.714Z,9.80
2023-04-16T15:15:44.848Z,10.10
2023-04-16T15:18:11.747Z,9.60
2023-04-16T15:20:38.693Z,11.63
2023-04-16T15:23:05.858Z,10.33
2023-04-16T15:25:32.790Z,10.63
2023-04-16T15:27:59.654Z,12.07
2023-04-16T15:30:26.558Z,18.10
2023-04-16T15:32:55.018Z,8.77
2023-04-16T15:35:22.131Z,12.27
2023-04-16T15:37:49.004Z,9.10
2023-04-16T15:40:18.713Z,8.20
2023-04-16T15:42:45.651Z,9.90
2023-04-16T15:45:12.551Z,12.27
2023-04-16T15:47:41.696Z,10.27
2023-04-16T15:50:09.075Z,12.40
2023-04-16T15:52:36.417Z,9.17
2023-04-16T15:55:04.385Z,10.27
2023-04-16T15:57:31.496Z,9.20
2023-04-16T16:02:30.522Z,13.60
2023-04-16T16:04:57.615Z,12.70
2023-04-16T16:07:25.186Z,14.10
2023-04-16T16:09:53.086Z,10.60
2023-04-16T16:12:20.029Z,10.20
2023-04-16T16:14:47.740Z,10.57
2023-04-16T16:17:14.852Z,13.90
2023-04-16T16:19:41.750Z,12.77
2023-04-16T16:22:10.126Z,10.27
2023-04-16T16:24:37.038Z,13.80
2023-04-16T16:27:04.104Z,10.70
2023-04-16T16:29:31.274Z,16.80
2023-04-16T16:31:58.280Z,20.37
2023-04-16T16:34:26.172Z,20.43
2023-04-16T16:36:53.076Z,10.87
2023-04-16T16:39:24.274Z,14.23
2023-04-16T16:41:54.175Z,14.60
2023-04-16T16:44:21.721Z,16.47
2023-04-16T16:46:48.870Z,15.83
2023-04-16T16:49:16.870Z,17.47
2023-04-16T16:51:49.986Z,19.03
2023-04-16T16:54:16.907Z,14.93
2023-04-16T16:56:43.858Z,16.70
2023-04-16T16:59:10.928Z,19.83
2023-04-16T17:01:38.039Z,18.93
2023-04-16T17:04:05.343Z,19.03
2023-04-16T17:06:33.215Z,20.07
2023-04-16T17:09:00.932Z,19.13
2023-04-16T17:11:29.246Z,19.87
2023-04-16T17:13:56.170Z,16.93
2023-04-16T17:16:23.912Z,19.67
2023-04-16T17:18:50.848Z,16.63
2023-04-16T17:21:17.761Z,20.90
2023-04-16T17:23:44.812Z,16.00
2023-04-16T17:26:11.725Z,14.27
2023-04-16T17:28:38.650Z,19.77
2023-04-16T17:31:08.322Z,16.03
2023-04-16T17:33:35.488Z,13.70
2023-04-16T17:36:02.438Z,14.57
2023-04-16T17:38:29.367Z,15.20
2023-04-16T17:40:57.043Z,14.90
2023-04-16T17:43:24.206Z,16.63
2023-04-16T17:45:51.179Z,19.77
2023-04-16T17:48:18.168Z,15.57
2023-04-16T17:50:45.062Z,21.87
2023-04-16T17:53:12.229Z,15.47
2023-04-16T17:55:39.135Z,14.13
2023-04-16T17:58:06.196Z,15.60
2023-04-16T18:00:33.399Z,15.13
2023-04-16T18:03:00.472Z,16.50
2023-04-16T18:05:27.645Z,16.33
2023-04-16T18:07:55.610Z,14.37
2023-04-16T18:10:22.543Z,16.67
2023-04-16T18:12:49.512Z,20.53
2023-04-16T18:15:16.639Z,17.73
2023-04-16T18:17:43.601Z,22.87
2023-04-16T18:20:12.543Z,18.57
2023-04-16T18:22:39.585Z,14.27
2023-04-16T18:25:07.097Z,14.63
2023-04-16T18:27:34.380Z,16.93
2023-04-16T18:30:01.359Z,16.33
2023-04-16T18:32:31.029Z,26.30
2023-04-16T18:34:58.264Z,16.23
2023-04-16T18:37:25.196Z,14.00
2023-04-16T18:39:52.115Z,15.77
2023-04-16T18:42:19.005Z,22.97
2023-04-16T18:44:52.791Z,16.73
2023-04-16T18:47:20.027Z,16.27
2023-04-16T18:49:46.931Z,21.50
2023-04-16T18:52:13.805Z,15.57
2023-04-16T18:54:43.604Z,17.27
2023-04-16T18:57:10.579Z,15.93
2023-04-16T18:59:37.491Z,18.73
2023-04-16T19:02:04.492Z,16.33
2023-04-16T19:04:31.524Z,18.73
2023-04-16T19:06:58.484Z,19.57
2023-04-16T19:09:26.423Z,18.10
2023-04-16T19:11:53.295Z,19.13
2023-04-16T19:14:20.606Z,16.13
2023-04-16T19:16:47.584Z,23.90
2023-04-16T19:19:14.491Z,18.60
2023-04-16T19:21:41.366Z,18.93
2023-04-16T19:24:08.309Z,17.27
2023-04-16T19:26:35.229Z,20.40
2023-04-16T19:29:02.166Z,16.57
2023-04-16T19:31:29.639Z,18.53
2023-04-16T19:33:56.617Z,15.63
2023-04-16T19:36:23.544Z,16.90
2023-04-16T19:38:50.548Z,27.67
2023-04-16T19:41:17.602Z,22.90
2023-04-16T19:43:44.605Z,18.67
2023-04-16T19:46:11.580Z,19.27
2023-04-16T19:48:38.681Z,19.03
2023-04-16T19:51:05.747Z,19.93
2023-04-16T19:53:34.126Z,19.70
2023-04-16T19:56:01.065Z,19.00
2023-04-16T19:58:28.020Z,18.43
2023-04-16T20:00:55.719Z,19.07
2023-04-16T20:03:22.734Z,20.60
2023-04-16T20:05:50.067Z,22.60
2023-04-16T20:08:16.978Z,23.23
2023-04-16T20:10:43.903Z,18.13
2023-04-16T20:13:12.088Z,23.23
2023-04-16T20:15:39.037Z,20.07
2023-04-16T20:18:08.507Z,20.03
2023-04-16T20:20:37.812Z,19.03
2023-04-16T20:23:04.948Z,22.00
2023-04-16T20:25:31.850Z,20.00
2023-04-16T20:27:58.736Z,20.27
2023-04-16T20:30:29.387Z,22.53
2023-04-16T20:32:56.761Z,23.93
2023-04-16T20:35:23.704Z,20.97
2023-04-16T20:37:50.569Z,21.23
2023-04-16T20:40:17.529Z,35.27
2023-04-16T20:42:46.300Z,20.50
2023-04-16T20:45:13.494Z,27.87
2023-04-16T20:47:40.491Z,21.90
2023-04-16T20:50:08.177Z,20.17
2023-04-16T20:52:35.065Z,20.67
2023-04-16T20:55:01.943Z,21.90
2023-04-16T20:57:29.756Z,21.27
2023-04-16T20:59:56.955Z,21.60
2023-04-16T21:02:24.369Z,30.63
2023-04-16T21:04:51.734Z,26.40
2023-04-16T21:07:18.751Z,29.50
2023-04-16T21:09:45.627Z,21.30
2023-04-16T21:12:12.477Z,22.60
2023-04-16T21:14:39.347Z,20.00
2023-04-16T21:17:06.229Z,31.60
2023-04-16T21:19:33.107Z,26.23
2023-04-16T21:21:59.993Z,26.80
2023-04-16T21:24:26.860Z,28.40
2023-04-16T21:26:53.717Z,25.13
2023-04-16T21:29:20.669Z,25.87
2023-04-16T21:31:47.752Z,26.73
2023-04-16T21:34:14.715Z,29.10
2023-04-16T21:36:41.572Z,29.37
2023-04-16T21:39:08.580Z,28.07
2023-04-16T21:41:35.461Z,39.20
2023-04-16T21:44:02.426Z,34.97
2023-04-16T21:46:29.596Z,29.93
2023-04-16T21:48:56.524Z,40.33
2023-04-16T21:51:29.192Z,29.93
2023-04-16T21:53:57.027Z,33.83
2023-04-16T21:56:24.940Z,37.87
2023-04-16T21:58:51.792Z,34.53
2023-04-16T22:01:18.713Z,32.47
2023-04-16T22:03:50.526Z,34.57
2023-04-16T22:06:18.303Z,30.27
2023-04-16T22:08:45.212Z,31.03
2023-04-16T22:11:12.174Z,36.20
2023-04-16T22:13:41.955Z,41.03
2023-04-16T22:16:10.958Z,32.00
2023-04-16T22:18:38.737Z,33.10
2023-04-16T22:21:05.692Z,31.73
2023-04-16T22:23:32.595Z,31.30
2023-04-16T22:25:59.453Z,31.30
2023-04-16T22:28:26.377Z,32.40
2023-04-16T22:30:53.291Z,29.80
2023-04-16T22:33:20.287Z,35.40
2023-04-16T22:35:47.172Z,31.50
2023-04-16T22:38:14.195Z,34.73
2023-04-16T22:40:41.091Z,40.33
2023-04-16T22:43:08.003Z,32.43
2023-04-16T22:45:35.689Z,33.20
2023-04-16T22:48:02.826Z,28.37
2023-04-16T22:50:31.299Z,30.87
2023-04-16T22:52:58.563Z,34.17
2023-04-16T22:55:25.608Z,46.77
2023-04-16T22:57:52.503Z,36.03
2023-04-16T23:00:19.463Z,29.77
2023-04-16T23:02:46.502Z,34.20
2023-04-16T23:05:13.486Z,36.20
2023-04-16T23:07:40.481Z,33.43
2023-04-16T23:10:08.666Z,33.47
2023-04-16T23:12:37.448Z,35.80
2023-04-16T23:15:06.620Z,32.90
2023-04-16T23:17:35.024Z,33.70
2023-04-16T23:20:02.974Z,32.10
2023-04-16T23:22:29.877Z,35.17
2023-04-16T23:24:56.854Z,33.43
2023-04-16T23:27:23.807Z,31.73
2023-04-16T23:29:50.696Z,29.57
2023-04-16T23:32:17.656Z,42.57
2023-04-16T23:34:44.570Z,29.87
2023-04-16T23:37:11.615Z,32.00
2023-04-16T23:39:38.548Z,33.30
2023-04-16T23:42:05.468Z,30.33
2023-04-16T23:44:32.396Z,29.63
2023-04-16T23:46:59.551Z,35.70
2023-04-16T23:49:26.516Z,38.77
2023-04-16T23:51:53.451Z,36.30
2023-04-16T23:54:21.382Z,34.13
2023-04-16T23:56:48.485Z,36.43
2023-04-16T23:59:16.682Z,31.60
